Time;durP1;ratioP1;P1;durP2;ratioP2;P2;SDS_P1;SDS_P2;PMS_P1;PMS_P2;Temp;Humidity;BMP_temperature;BMP_pressure;BME280_temperature;BME280_humidity;BME280_pressure;Samples;Min_cycle;Max_cycle;Signal;HPM_P1;HPM_P2
2021/10/29 00:01:52;;;;;;;41.85;13.88;;;;;;;3.42;98.72;98521.53;5070793;28;20052;-87
2021/10/29 00:04:18;;;;;;;22.63;13.98;;;;;;;3.39;99.00;98516.28;5094663;28;20273;-87
2021/10/29 00:06:44;;;;;;;23.67;14.43;;;;;;;3.43;98.98;98517.19;5071688;28;20095;-87
2021/10/29 00:09:09;;;;;;;23.67;13.95;;;;;;;3.46;99.45;98527.63;5088649;28;20037;-87
2021/10/29 00:11:34;;;;;;;35.60;18.23;;;;;;;3.33;99.57;98531.88;5069975;28;20032;-87
2021/10/29 00:14:00;;;;;;;23.30;13.60;;;;;;;3.41;99.89;98524.13;5069148;28;20013;-87
2021/10/29 00:16:25;;;;;;;28.90;14.80;;;;;;;3.36;99.25;98518.88;5069762;28;20055;-87
2021/10/29 00:18:51;;;;;;;30.00;14.60;;;;;;;3.40;99.27;98523.25;5075273;28;20021;-87
2021/10/29 00:21:16;;;;;;;32.17;15.50;;;;;;;3.31;99.11;98528.41;5076662;28;20020;-87
2021/10/29 00:23:42;;;;;;;26.88;14.73;;;;;;;3.32;99.08;98530.13;5073349;28;20069;-87
2021/10/29 00:26:07;;;;;;;33.25;16.60;;;;;;;3.24;99.13;98518.81;5077403;28;20055;-87
2021/10/29 00:28:33;;;;;;;30.73;15.63;;;;;;;3.26;99.71;98522.28;5096185;28;20016;-87
2021/10/29 00:30:58;;;;;;;27.23;15.15;;;;;;;3.17;99.22;98518.75;5070825;28;20031;-87
2021/10/29 00:33:23;;;;;;;29.67;16.90;;;;;;;3.24;99.72;98524.00;5072501;28;20141;-87
2021/10/29 00:35:49;;;;;;;63.03;16.55;;;;;;;3.03;99.46;98520.34;5088560;28;20024;-87
2021/10/29 00:38:15;;;;;;;39.40;14.85;;;;;;;3.07;99.96;98515.19;5070751;28;20189;-87
2021/10/29 00:40:41;;;;;;;31.90;14.05;;;;;;;3.10;100.00;98507.41;5091223;28;20020;-87
2021/10/29 00:43:08;;;;;;;30.25;14.57;;;;;;;3.22;99.71;98515.31;5083637;28;20287;-87
2021/10/29 00:45:34;;;;;;;33.40;16.00;;;;;;;3.09;99.62;98508.28;5068787;28;20016;-87
2021/10/29 00:48:00;;;;;;;32.28;15.70;;;;;;;3.01;100.00;98496.94;5076094;28;20253;-87
2021/10/29 00:50:25;;;;;;;34.90;15.30;;;;;;;3.03;99.74;98495.22;5071146;28;20069;-87
2021/10/29 00:52:51;;;;;;;24.73;14.90;;;;;;;2.97;100.00;98495.19;5068109;28;20016;-87
2021/10/29 00:55:16;;;;;;;30.95;16.02;;;;;;;3.08;100.00;98498.75;5085881;28;20100;-87
2021/10/29 00:57:43;;;;;;;26.25;14.68;;;;;;;3.19;100.00;98504.00;5067457;28;20054;-87
2021/10/29 01:00:12;;;;;;;28.98;15.15;;;;;;;3.15;99.81;98505.75;5064434;28;20025;-87
2021/10/29 01:02:37;;;;;;;31.85;14.02;;;;;;;3.23;99.53;98503.19;5068442;28;20028;-86
2021/10/29 01:05:04;;;;;;;20.20;12.38;;;;;;;3.14;99.14;98501.41;5073253;28;20043;-86
2021/10/29 01:07:31;;;;;;;27.42;13.68;;;;;;;2.92;98.20;98491.69;5075234;28;20020;-86
2021/10/29 01:09:57;;;;;;;23.92;14.85;;;;;;;2.87;98.17;98495.97;5071186;28;20020;-86
2021/10/29 01:12:22;;;;;;;27.35;15.15;;;;;;;2.80;98.64;98496.78;5069939;28;20026;-86
2021/10/29 01:14:58;;;;;;;25.77;13.93;;;;;;;2.83;98.95;98486.41;5075356;28;20011;-86
2021/10/29 01:17:25;;;;;;;22.00;13.13;;;;;;;2.88;98.89;98492.50;5072800;28;20099;-86
2021/10/29 01:19:52;;;;;;;22.80;13.93;;;;;;;2.81;98.80;98490.72;5096078;28;20020;-86
2021/10/29 01:22:18;;;;;;;24.55;13.18;;;;;;;2.70;98.65;98489.75;5072763;28;20329;-86
2021/10/29 01:24:43;;;;;;;28.35;13.32;;;;;;;2.65;99.21;98491.44;5087665;28;20051;-86
2021/10/29 01:27:12;;;;;;;21.42;12.93;;;;;;;2.71;99.50;98486.28;5098234;28;20050;-86
2021/10/29 01:29:39;;;;;;;24.38;13.57;;;;;;;2.78;99.54;98482.88;5085900;28;20098;-86
2021/10/29 01:32:07;;;;;;;28.55;13.85;;;;;;;2.79;99.12;98484.66;5070836;28;20226;-86
2021/10/29 01:34:33;;;;;;;20.10;13.02;;;;;;;2.75;98.90;98472.47;5069205;28;20016;-86
2021/10/29 01:37:00;;;;;;;33.38;12.50;;;;;;;2.57;98.43;98466.25;5067847;28;20049;-86
2021/10/29 01:39:25;;;;;;;23.10;14.23;;;;;;;2.67;99.21;98468.06;5069319;28;20031;-86
2021/10/29 01:41:51;;;;;;;28.95;13.82;;;;;;;2.68;98.54;98475.00;5067374;28;20028;-86
2021/10/29 01:44:16;;;;;;;22.98;12.93;;;;;;;2.57;98.91;98472.31;5068274;28;20027;-86
2021/10/29 01:46:42;;;;;;;25.45;13.63;;;;;;;2.62;98.80;98470.63;5068922;28;20323;-86
2021/10/29 01:49:08;;;;;;;25.73;13.27;;;;;;;2.59;98.58;98467.16;5071439;28;20114;-86
2021/10/29 01:51:33;;;;;;;25.58;14.00;;;;;;;2.57;99.22;98480.13;5086062;28;20193;-86
2021/10/29 01:53:59;;;;;;;24.45;13.45;;;;;;;2.62;98.93;98474.97;5068266;28;20055;-86
2021/10/29 01:56:25;;;;;;;21.60;12.95;;;;;;;2.63;99.28;98482.78;5074478;28;20107;-86
2021/10/29 01:58:51;;;;;;;26.80;14.05;;;;;;;2.51;98.91;98487.84;5066688;28;20039;-86
2021/10/29 02:01:16;;;;;;;23.92;13.70;;;;;;;2.39;99.10;98492.91;5081539;28;20020;-87
2021/10/29 02:03:42;;;;;;;22.02;11.88;;;;;;;2.39;99.33;98492.03;5065663;28;20284;-86
2021/10/29 02:06:07;;;;;;;22.02;12.65;;;;;;;2.24;98.75;98477.16;5073424;28;20362;-86
2021/10/29 02:08:33;;;;;;;21.17;13.18;;;;;;;2.30;99.31;98487.63;5075568;28;20088;-86
2021/10/29 02:10:59;;;;;;;21.58;12.90;;;;;;;2.29;99.28;98496.28;5073439;28;20056;-86
2021/10/29 02:13:25;;;;;;;22.90;13.30;;;;;;;2.47;99.27;98480.88;5066118;28;20031;-86
2021/10/29 02:15:51;;;;;;;22.02;12.40;;;;;;;2.39;98.83;98477.34;5076501;28;20301;-86
2021/10/29 02:18:16;;;;;;;20.35;13.05;;;;;;;2.40;98.53;98471.28;5064886;28;20029;-86
2021/10/29 02:20:44;;;;;;;19.77;12.48;;;;;;;2.44;98.45;98475.66;5066453;28;20070;-86
2021/10/29 02:23:09;;;;;;;18.88;11.70;;;;;;;2.35;98.01;98475.56;5066360;28;20262;-86
2021/10/29 02:25:35;;;;;;;17.42;11.40;;;;;;;2.28;98.16;98472.03;5085376;28;20051;-86
2021/10/29 02:28:00;;;;;;;20.38;12.25;;;;;;;2.43;97.94;98468.72;5086480;28;20024;-86
2021/10/29 02:30:25;;;;;;;20.48;12.52;;;;;;;2.34;98.44;98458.22;5069029;28;20024;-86
2021/10/29 02:32:51;;;;;;;18.77;11.98;;;;;;;2.28;98.34;98463.38;5071443;28;20043;-86
2021/10/29 02:35:16;;;;;;;16.67;11.32;;;;;;;2.31;98.50;98453.00;5069103;28;20083;-86
2021/10/29 02:37:42;;;;;;;22.88;11.07;;;;;;;2.31;98.30;98457.34;5071835;28;20016;-86
2021/10/29 02:40:08;;;;;;;20.25;11.52;;;;;;;2.32;97.93;98454.75;5059031;28;20024;-86
2021/10/29 02:42:33;;;;;;;19.75;11.48;;;;;;;2.18;97.87;98461.50;5062924;28;20083;-86
2021/10/29 02:44:59;;;;;;;20.67;12.52;;;;;;;2.24;98.17;98466.78;5067952;28;20346;-86
2021/10/29 02:47:25;;;;;;;18.25;10.93;;;;;;;2.29;98.41;98459.91;5071765;28;20046;-86
2021/10/29 02:49:50;;;;;;;20.13;12.15;;;;;;;2.29;98.81;98459.91;5061452;28;20024;-86
2021/10/29 02:52:17;;;;;;;20.67;12.50;;;;;;;2.23;98.55;98459.84;5064073;28;20074;-86
2021/10/29 02:54:42;;;;;;;19.10;12.02;;;;;;;2.23;98.43;98460.75;5070472;28;20203;-86
2021/10/29 02:57:07;;;;;;;18.45;12.05;;;;;;;2.22;98.30;98463.31;5073050;28;20057;-86
2021/10/29 02:59:33;;;;;;;22.15;13.15;;;;;;;2.17;98.16;98454.59;5071143;28;20036;-86
2021/10/29 03:01:58;;;;;;;30.00;14.43;;;;;;;2.11;98.93;98452.81;5068413;28;20055;-86
2021/10/29 03:04:24;;;;;;;21.33;12.95;;;;;;;2.27;99.13;98448.63;5060133;28;20029;-86
2021/10/29 03:06:49;;;;;;;25.40;13.60;;;;;;;2.31;98.88;98447.81;5064660;28;20024;-86
2021/10/29 03:09:14;;;;;;;27.10;14.95;;;;;;;2.39;98.97;98438.38;5070396;28;20028;-86
2021/10/29 03:11:40;;;;;;;31.70;14.35;;;;;;;2.25;98.97;98427.84;5072933;28;20027;-86
2021/10/29 03:14:05;;;;;;;25.35;13.55;;;;;;;2.27;99.28;98430.47;5091464;28;20024;-86
2021/10/29 03:16:31;;;;;;;28.40;13.10;;;;;;;2.20;99.14;98433.84;5074309;28;20378;-86
2021/10/29 03:18:56;;;;;;;28.35;14.52;;;;;;;2.27;99.23;98434.81;5068859;28;20020;-86
2021/10/29 03:21:21;;;;;;;24.55;12.45;;;;;;;2.33;99.05;98427.94;5069544;28;20099;-86
2021/10/29 03:23:47;;;;;;;24.85;14.15;;;;;;;2.21;98.71;98425.19;5091994;28;20024;-86
2021/10/29 03:26:12;;;;;;;22.50;13.10;;;;;;;2.24;98.71;98430.44;5091938;28;20020;-86
2021/10/29 03:28:38;;;;;;;28.52;14.50;;;;;;;2.12;98.96;98430.34;5092973;28;20074;-86
2021/10/29 03:31:03;;;;;;;28.25;14.25;;;;;;;2.18;98.67;98428.66;5071655;28;20085;-86
2021/10/29 03:33:35;;;;;;;26.83;13.93;;;;;;;2.18;98.94;98426.06;5087475;28;20087;-86
2021/10/29 03:36:01;;;;;;;25.58;13.18;;;;;;;2.11;98.50;98433.75;5060970;28;20022;-86
2021/10/29 03:41:00;;;;;;;23.45;13.75;;;;;;;2.17;99.23;98428.63;5088930;28;20020;-86
2021/10/29 03:45:58;;;;;;;24.67;13.43;;;;;;;2.10;98.23;98416.47;5089484;28;20081;-86
2021/10/29 03:49:17;;;;;;;19.58;12.13;;;;;;;2.12;98.26;98425.13;5077909;28;20020;-86
2021/10/29 03:53:49;;;;;;;20.73;12.53;;;;;;;2.11;98.42;98418.19;5088022;28;20039;-86
2021/10/29 03:56:23;;;;;;;21.15;12.80;;;;;;;2.25;99.82;98412.28;5092995;28;20257;-86
2021/10/29 03:58:51;;;;;;;23.58;13.50;;;;;;;2.14;99.25;98418.22;5078393;28;20143;-86
2021/10/29 04:01:17;;;;;;;23.67;13.38;;;;;;;2.05;99.11;98410.34;5071408;28;20211;-87
2021/10/29 04:03:44;;;;;;;26.10;14.52;;;;;;;2.10;99.30;98411.25;5070558;28;20086;-86
2021/10/29 04:06:09;;;;;;;25.00;14.35;;;;;;;2.22;99.84;98416.59;5069146;28;20048;-86
2021/10/29 04:08:35;;;;;;;25.35;13.63;;;;;;;2.27;100.00;98412.28;5068263;28;20023;-86
2021/10/29 04:11:00;;;;;;;23.52;13.57;;;;;;;2.26;99.65;98423.53;5074063;28;20043;-86
2021/10/29 04:13:28;;;;;;;28.73;15.07;;;;;;;2.31;99.77;98406.25;5077953;28;20021;-86
2021/10/29 04:15:54;;;;;;;29.75;15.77;;;;;;;2.35;99.62;98412.34;5071288;28;20020;-86
2021/10/29 04:18:20;;;;;;;26.65;14.02;;;;;;;2.36;99.72;98407.19;5085800;28;20020;-86
2021/10/29 04:20:46;;;;;;;25.77;15.23;;;;;;;2.38;99.82;98400.28;5067953;28;20016;-86
2021/10/29 04:23:11;;;;;;;26.50;14.43;;;;;;;2.32;99.70;98391.56;5067415;28;20021;-86
2021/10/29 04:25:37;;;;;;;27.80;14.52;;;;;;;2.43;100.00;98401.19;5066843;28;20324;-86
2021/10/29 04:28:08;;;;;;;27.33;16.20;;;;;;;2.44;99.92;98400.34;5076494;28;20030;-86
2021/10/29 04:30:34;;;;;;;23.40;13.60;;;;;;;2.31;99.10;98390.69;5071071;28;20017;-86
2021/10/29 04:33:06;;;;;;;28.27;14.80;;;;;;;2.31;99.32;98400.22;5073833;28;20099;-86
2021/10/29 04:35:33;;;;;;;29.15;14.90;;;;;;;2.43;99.77;98406.38;5063969;28;20020;-86
2021/10/29 04:37:59;;;;;;;23.90;14.23;;;;;;;2.37;99.39;98401.13;5065172;28;20021;-86
2021/10/29 04:40:24;;;;;;;35.95;14.93;;;;;;;2.41;99.72;98402.03;5084291;28;20035;-86
2021/10/29 04:42:50;;;;;;;28.85;15.35;;;;;;;2.43;99.71;98395.97;5066964;28;20028;-86
2021/10/29 04:45:16;;;;;;;24.52;13.93;;;;;;;2.50;99.49;98394.31;5063081;28;20080;-86
2021/10/29 04:47:41;;;;;;;28.77;15.18;;;;;;;2.45;99.14;98407.28;5084209;28;20020;-86
2021/10/29 04:50:07;;;;;;;28.55;14.60;;;;;;;2.42;99.02;98394.25;5067137;28;20024;-86
2021/10/29 04:52:33;;;;;;;27.15;13.75;;;;;;;2.39;99.08;98389.03;5066921;28;20027;-86
2021/10/29 04:54:58;;;;;;;31.67;15.88;;;;;;;2.35;99.07;98376.88;5070118;28;20017;-86
2021/10/29 04:57:24;;;;;;;29.80;14.75;;;;;;;2.48;99.76;98389.13;5071307;28;20388;-86
2021/10/29 04:59:49;;;;;;;31.80;14.73;;;;;;;2.45;99.22;98383.00;5074286;28;20066;-86
2021/10/29 05:02:15;;;;;;;27.33;15.40;;;;;;;2.36;99.48;98383.81;5069099;28;20027;-86
2021/10/29 05:04:41;;;;;;;28.00;16.13;;;;;;;2.41;99.71;98381.25;5026249;28;1149937;-86
2021/10/29 05:07:06;;;;;;;24.52;14.55;;;;;;;2.52;99.81;98377.88;5069241;28;20020;-86
2021/10/29 05:09:31;;;;;;;32.50;16.83;;;;;;;2.68;99.67;98376.25;5068725;28;20066;-86
2021/10/29 05:11:57;;;;;;;29.40;14.85;;;;;;;2.60;99.33;98378.84;5088051;28;20024;-86
2021/10/29 05:14:22;;;;;;;30.70;15.27;;;;;;;2.56;99.20;98374.44;5072071;28;20014;-86
2021/10/29 05:16:50;;;;;;;29.02;15.27;;;;;;;2.61;99.51;98375.38;5069686;28;20381;-86
2021/10/29 05:19:15;;;;;;;31.10;15.23;;;;;;;2.73;100.00;98372.88;5072973;28;20097;-86
2021/10/29 05:21:41;;;;;;;32.50;16.90;;;;;;;2.74;100.00;98365.91;5077807;28;20048;-86
2021/10/29 05:24:06;;;;;;;32.08;16.13;;;;;;;2.61;100.00;98367.56;5074868;28;20028;-86
2021/10/29 05:26:32;;;;;;;33.55;16.58;;;;;;;2.67;100.00;98365.03;5068487;28;20019;-86
2021/10/29 05:28:57;;;;;;;32.17;15.57;;;;;;;2.74;100.00;98366.81;5077665;28;20024;-87
2021/10/29 05:31:23;;;;;;;35.10;17.65;;;;;;;2.75;100.00;98358.13;5070882;28;20035;-87
2021/10/29 05:33:48;;;;;;;36.28;18.98;;;;;;;2.83;100.00;98356.47;5077948;28;20012;-86
2021/10/29 05:36:13;;;;;;;31.58;17.17;;;;;;;2.83;100.00;98346.06;5074863;28;20015;-86
2021/10/29 05:38:39;;;;;;;27.40;15.27;;;;;;;2.82;100.00;98349.53;5067641;28;20016;-86
2021/10/29 05:41:05;;;;;;;33.30;17.08;;;;;;;2.77;100.00;98351.22;5084988;28;20048;-86
2021/10/29 05:43:30;;;;;;;38.53;19.30;;;;;;;2.76;100.00;98333.91;5066985;28;20113;-86
2021/10/29 05:45:56;;;;;;;42.00;18.33;;;;;;;2.76;100.00;98338.22;5066833;28;20024;-86
2021/10/29 05:48:22;;;;;;;25.40;14.73;;;;;;;2.72;99.94;98342.53;5083420;28;20381;-86
2021/10/29 05:50:49;;;;;;;29.00;15.32;;;;;;;2.72;99.62;98341.66;5067332;28;20070;-86
2021/10/29 05:55:57;;;;;;;35.53;18.63;;;;;;;2.71;100.00;98333.00;5085221;28;20020;-86
2021/10/29 05:58:23;;;;;;;35.33;17.13;;;;;;;2.79;100.00;98344.31;5059259;28;20021;-86
2021/10/29 06:00:50;;;;;;;33.55;18.35;;;;;;;2.68;100.00;98334.69;5065878;28;20084;-86
2021/10/29 06:03:15;;;;;;;36.78;18.48;;;;;;;2.78;100.00;98332.16;5079173;28;20032;-86
2021/10/29 06:05:41;;;;;;;30.27;16.52;;;;;;;2.79;100.00;98338.25;5086741;28;20239;-85
2021/10/29 06:08:06;;;;;;;37.60;18.52;;;;;;;2.84;100.00;98332.22;5072328;28;20032;-86
2021/10/29 06:10:32;;;;;;;38.42;18.83;;;;;;;2.81;100.00;98333.94;5086044;28;20235;-85
2021/10/29 06:12:57;;;;;;;37.63;19.15;;;;;;;2.88;100.00;98331.34;5073224;28;20027;-85
2021/10/29 06:15:23;;;;;;;38.38;19.67;;;;;;;2.90;100.00;98337.44;5072835;28;20058;-85
2021/10/29 06:17:49;;;;;;;34.65;18.13;;;;;;;2.91;100.00;98339.19;5063446;28;20091;-85
2021/10/29 06:20:15;;;;;;;33.70;18.25;;;;;;;2.97;100.00;98339.22;5086681;28;20035;-85
2021/10/29 06:22:47;;;;;;;35.65;17.23;;;;;;;3.02;99.75;98331.44;5069785;28;20043;-86
2021/10/29 06:25:16;;;;;;;33.87;17.63;;;;;;;2.97;99.65;98339.22;5084020;28;20336;-85
2021/10/29 06:30:27;;;;;;;33.95;18.10;;;;;;;3.06;100.00;98344.47;5085040;28;20247;-85
2021/10/29 06:32:53;;;;;;;38.90;19.08;;;;;;;3.32;100.00;98340.25;5072316;28;20016;-85
2021/10/29 06:35:18;;;;;;;36.65;17.98;;;;;;;3.45;100.00;98343.78;5076872;28;20095;-85
2021/10/29 06:37:44;;;;;;;41.88;20.60;;;;;;;3.42;100.00;98352.44;5091166;28;20023;-85
2021/10/29 06:40:12;;;;;;;32.92;16.98;;;;;;;3.57;100.00;98349.91;5070047;28;20017;-85
2021/10/29 06:42:38;;;;;;;49.95;23.08;;;;;;;3.84;100.00;98342.19;5061683;28;20041;-85
2021/10/29 06:47:47;;;;;;;47.03;22.30;;;;;;;4.10;100.00;98348.31;5087120;28;20029;-86
2021/10/29 07:01:00;;;;;;;41.58;21.45;;;;;;;4.55;100.00;98359.63;5081854;28;20143;-87
2021/10/29 07:41:40;;;;;;;85.22;41.78;;;;;;;6.59;100.00;98230.69;5077706;28;20059;-88
2021/10/29 07:44:15;;;;;;;55.05;25.83;;;;;;;6.75;100.00;98284.56;5063543;28;20021;-88
2021/10/29 07:46:42;;;;;;;50.45;23.73;;;;;;;6.92;100.00;98300.06;5064753;28;20272;-88
2021/10/29 07:49:08;;;;;;;39.33;20.35;;;;;;;7.13;100.00;98285.03;5064585;28;20315;-88
2021/10/29 07:51:36;;;;;;;47.33;22.95;;;;;;;7.35;100.00;98454.06;5059117;28;20027;-88
2021/10/29 07:54:02;;;;;;;40.28;22.42;;;;;;;7.53;98.75;98479.19;5083238;28;20021;-88
2021/10/29 07:56:27;;;;;;;48.83;25.33;;;;;;;7.95;97.16;98463.88;5055758;28;20211;-89
2021/10/29 07:58:52;;;;;;;54.42;27.50;;;;;;;8.72;94.18;98458.50;5060881;28;20032;-88
2021/10/29 08:01:18;;;;;;;33.55;18.52;;;;;;;9.72;90.78;98456.78;5051178;28;20016;-88
2021/10/29 08:03:43;;;;;;;32.95;19.42;;;;;;;10.43;86.13;98464.13;5077003;28;20028;-88
2021/10/29 08:06:09;;;;;;;29.23;16.42;;;;;;;11.33;83.10;98461.97;5060125;28;20048;-88
2021/10/29 08:08:34;;;;;;;21.83;14.00;;;;;;;11.72;78.59;98450.47;5079842;28;20043;-88
2021/10/29 08:11:00;;;;;;;22.80;12.30;;;;;;;12.08;78.75;98457.34;5066917;28;20320;-87
2021/10/29 08:13:25;;;;;;;18.73;11.63;;;;;;;12.42;75.24;98454.59;5064418;28;20224;-87
2021/10/29 08:15:53;;;;;;;17.42;11.05;;;;;;;13.10;74.29;98450.72;5063975;28;20016;-87
2021/10/29 08:18:20;;;;;;;18.70;11.88;;;;;;;13.48;73.37;98452.13;5054787;28;20031;-87
2021/10/29 08:20:46;;;;;;;18.08;10.30;;;;;;;13.98;70.23;98460.03;5060982;28;20020;-87
2021/10/29 08:23:12;;;;;;;16.90;9.93;;;;;;;14.17;70.13;98455.81;5080235;28;20025;-87
2021/10/29 08:25:38;;;;;;;19.70;10.93;;;;;;;14.10;69.91;98469.31;5062328;28;20026;-87
2021/10/29 08:28:04;;;;;;;17.45;10.73;;;;;;;14.14;69.66;98465.66;5057257;28;20024;-87
2021/10/29 08:30:29;;;;;;;18.73;10.65;;;;;;;14.89;66.43;98462.78;5065317;28;20062;-87
2021/10/29 08:32:55;;;;;;;19.08;11.25;;;;;;;14.04;67.94;98458.94;5062833;28;20040;-87
2021/10/29 08:35:20;;;;;;;18.25;10.70;;;;;;;14.97;67.56;98471.31;5083970;28;20050;-87
2021/10/29 08:37:49;;;;;;;15.95;9.57;;;;;;;14.95;66.30;98462.56;5067479;28;20020;-87
2021/10/29 08:40:15;;;;;;;19.70;11.18;;;;;;;13.95;68.03;98451.34;5064572;28;20086;-87
2021/10/29 08:42:40;;;;;;;16.30;10.25;;;;;;;13.54;71.28;98465.16;5068315;28;20374;-87
2021/10/29 08:45:08;;;;;;;18.35;10.30;;;;;;;12.78;73.29;98449.06;5083047;28;20028;-87
2021/10/29 08:47:37;;;;;;;18.30;11.05;;;;;;;12.25;75.66;98451.59;5068671;28;20070;-87
2021/10/29 08:50:05;;;;;;;17.25;11.30;;;;;;;12.34;75.62;98454.81;5067033;28;20028;-87
2021/10/29 08:52:31;;;;;;;16.63;10.32;;;;;;;12.21;75.94;98445.53;5062759;28;20024;-87
2021/10/29 08:54:57;;;;;;;17.17;10.55;;;;;;;13.32;73.30;98450.91;5067658;28;20075;-87
2021/10/29 08:57:25;;;;;;;22.48;11.50;;;;;;;13.42;71.05;98447.03;5061924;28;20024;-87
2021/10/29 08:59:54;;;;;;;18.98;11.07;;;;;;;13.98;69.44;98451.25;5057587;28;20063;-89
2021/10/29 09:32:37;;;;;;;18.35;11.80;;;;;;;15.16;67.01;98420.13;5097719;28;20291;-88
2021/10/29 09:35:13;;;;;;;18.65;10.85;;;;;;;15.68;66.06;98415.31;5058211;28;20040;-89
2021/10/29 09:37:59;;;;;;;16.52;10.43;;;;;;;16.41;63.31;98417.31;5062143;28;20021;-88
2021/10/29 09:40:25;;;;;;;20.65;10.50;;;;;;;16.09;63.80;98404.63;5082737;28;20012;-88
2021/10/29 09:42:54;;;;;;;22.00;11.20;;;;;;;16.21;63.12;98406.75;5058778;28;20027;-88
2021/10/29 09:45:25;;;;;;;16.30;9.80;;;;;;;16.17;63.36;98397.16;5061669;28;20051;-88
2021/10/29 09:48:10;;;;;;;17.20;9.68;;;;;;;16.23;63.20;98391.56;5066645;28;20127;-88
2021/10/29 09:50:37;;;;;;;16.80;9.75;;;;;;;16.06;64.01;98393.28;5063266;28;20024;-88
2021/10/29 09:58:16;;;;;;;17.50;10.65;;;;;;;15.45;66.51;98384.50;5081184;28;20029;-90
2021/10/29 10:00:43;;;;;;;20.73;12.25;;;;;;;15.29;66.25;98383.38;5066675;28;20241;-90
2021/10/29 10:03:08;;;;;;;19.75;11.43;;;;;;;14.52;69.00;98383.88;5064320;28;20023;-91
2021/10/29 10:05:35;;;;;;;20.33;11.85;;;;;;;14.72;68.88;98386.59;5065360;28;20029;-91
2021/10/29 10:08:01;;;;;;;21.10;11.93;;;;;;;14.46;70.23;98385.94;5062404;28;20021;-90
2021/10/29 10:10:28;;;;;;;23.05;10.70;;;;;;;14.59;70.63;98389.81;5063937;28;20023;-90
2021/10/29 10:12:57;;;;;;;18.77;10.80;;;;;;;15.24;69.42;98393.31;5064939;28;20043;-90
2021/10/29 10:15:23;;;;;;;20.38;11.38;;;;;;;14.63;69.29;98380.81;5065408;28;20012;-90
2021/10/29 10:17:51;;;;;;;17.70;10.60;;;;;;;14.87;69.46;98379.81;5066819;28;20020;-90
2021/10/29 10:20:18;;;;;;;19.58;11.70;;;;;;;14.54;69.70;98386.47;5061581;28;20258;-89
2021/10/29 10:22:47;;;;;;;20.77;11.90;;;;;;;14.16;71.62;98384.41;5062830;28;20136;-90
2021/10/29 10:42:16;;;;;;;20.98;12.65;;;;;;;14.67;70.03;98371.81;5083948;28;20212;-91
2021/10/29 10:45:01;;;;;;;22.02;12.57;;;;;;;14.30;68.52;98361.81;5077643;28;20189;-91
2021/10/29 10:47:35;;;;;;;24.60;12.85;;;;;;;14.50;68.79;98361.03;5063490;28;20032;-91
2021/10/29 10:50:22;;;;;;;22.77;12.45;;;;;;;14.72;67.73;98348.69;5066133;28;20020;-91
2021/10/29 10:53:17;;;;;;;22.95;12.32;;;;;;;14.82;66.86;98350.03;5059675;28;20016;-91
2021/10/29 10:58:47;;;;;;;20.63;11.15;;;;;;;14.88;67.02;98349.78;5088312;28;20091;-90
2021/10/29 11:01:42;;;;;;;17.77;10.77;;;;;;;14.78;67.27;98343.13;5065149;28;20054;-91
2021/10/29 11:12:23;;;;;;;19.60;10.95;;;;;;;14.40;67.09;98323.44;5083827;28;20024;-89
2021/10/29 11:15:06;;;;;;;20.30;11.45;;;;;;;14.17;67.36;98312.88;5058407;28;20025;-90
2021/10/29 11:17:50;;;;;;;22.45;12.10;;;;;;;14.40;66.44;98314.66;5081000;28;20027;-91
2021/10/29 11:20:42;;;;;;;19.85;10.25;;;;;;;14.38;67.11;98313.84;5082507;28;20216;-91
2021/10/29 11:23:18;;;;;;;21.33;11.50;;;;;;;14.52;67.29;98298.25;5046125;28;20088;-89
2021/10/29 11:26:04;;;;;;;29.45;10.95;;;;;;;14.41;67.56;98300.50;5053834;28;20037;-91
2021/10/29 11:28:46;;;;;;;16.58;9.75;;;;;;;14.51;66.79;98300.06;5063944;28;20027;-90
2021/10/29 11:31:18;;;;;;;18.20;9.52;;;;;;;14.60;66.12;98290.88;5076537;28;20024;-91
2021/10/29 11:33:45;;;;;;;;;;;;;;;14.82;65.68;98287.31;5064263;28;20032;-88
2021/10/29 11:36:13;;;;;;;20.05;9.15;;;;;;;14.88;65.03;98291.47;5059348;28;19947;-90
2021/10/29 11:38:43;;;;;;;17.85;8.93;;;;;;;14.95;65.26;98293.81;5066324;28;20024;-93
2021/10/29 11:41:14;;;;;;;16.55;9.43;;;;;;;14.89;64.65;98279.94;5091215;28;20025;-91
2021/10/29 11:43:40;;;;;;;16.43;9.50;;;;;;;14.66;64.63;98280.03;5083475;28;20135;-91
2021/10/29 11:46:08;;;;;;;17.27;8.95;;;;;;;14.81;65.18;98290.00;5067224;28;20323;-90
2021/10/29 11:48:59;;;;;;;21.08;10.05;;;;;;;14.53;65.21;98273.53;5049552;28;20198;-91
2021/10/29 11:51:25;;;;;;;18.50;9.65;;;;;;;14.73;64.83;98273.56;5038165;28;20075;-91
2021/10/29 12:07:16;;;;;;;13.40;8.18;;;;;;;14.76;65.21;98245.16;5078583;28;20035;-91
2021/10/29 12:09:53;;;;;;;18.45;7.32;;;;;;;14.65;65.65;98242.09;5069372;28;20051;-90
2021/10/29 12:12:22;;;;;;;14.23;7.20;;;;;;;14.58;65.52;98240.63;5087093;28;20024;-91
2021/10/29 12:14:50;;;;;;;15.00;8.00;;;;;;;14.63;65.41;98238.66;5069162;28;20016;-91
2021/10/29 12:17:23;;;;;;;17.83;8.60;;;;;;;14.66;64.77;98232.38;5069110;28;20027;-90
2021/10/29 12:19:51;;;;;;;18.77;7.57;;;;;;;14.65;66.07;98235.94;5086973;28;20058;-90
2021/10/29 12:24:48;;;;;;;16.27;7.18;;;;;;;14.48;66.17;98233.13;5066671;28;20084;-91
2021/10/29 12:27:15;;;;;;;21.85;7.75;;;;;;;14.46;65.45;98213.81;5067183;28;20311;-91
2021/10/29 12:29:41;;;;;;;15.18;7.78;;;;;;;14.49;65.30;98219.81;5048910;28;20017;-91
2021/10/29 12:36:30;;;;;;;18.20;7.80;;;;;;;14.33;65.96;98202.00;5066967;28;20243;-91
2021/10/29 13:02:28;;;;;;;13.77;6.70;;;;;;;14.37;65.39;98193.00;5066100;28;20024;-91
2021/10/29 13:04:57;;;;;;;13.23;6.80;;;;;;;14.45;65.53;98198.81;5048016;28;20029;-91
2021/10/29 13:07:28;;;;;;;14.60;8.05;;;;;;;14.46;65.08;98197.91;5066138;28;20068;-90
2021/10/29 13:10:04;;;;;;;16.95;6.78;;;;;;;14.48;65.17;98198.69;5048154;28;20021;-90
2021/10/29 13:12:39;;;;;;;14.20;7.40;;;;;;;14.46;65.25;98195.25;5048075;28;20021;-90
2021/10/29 13:15:10;;;;;;;15.27;6.82;;;;;;;14.36;65.92;98202.72;5040968;28;20021;-90
2021/10/29 13:17:39;;;;;;;14.32;7.43;;;;;;;14.28;65.17;98201.31;5048129;28;20028;-90
2021/10/29 13:22:58;;;;;;;12.40;6.80;;;;;;;14.27;66.34;98212.84;5065347;28;20024;-91
2021/10/29 13:25:46;;;;;;;14.43;7.18;;;;;;;14.24;65.59;98197.06;5059950;28;20371;-90
2021/10/29 14:03:18;;;;;;;15.43;5.85;;;;;;;14.91;63.34;98166.81;5064963;28;20017;-91
2021/10/29 14:30:15;;;;;;;8.82;4.57;;;;;;;15.04;62.22;98160.03;5064657;28;20027;-91
2021/10/29 14:35:26;;;;;;;9.23;4.85;;;;;;;15.06;62.07;98152.84;5064434;28;20020;-91
2021/10/29 14:42:59;;;;;;;9.55;5.07;;;;;;;14.98;62.09;98157.66;5084617;28;20024;-91
2021/10/29 14:45:30;;;;;;;10.57;4.95;;;;;;;14.92;62.63;98144.66;5066389;28;20316;-91
2021/10/29 14:48:12;;;;;;;14.53;5.40;;;;;;;14.95;62.99;98144.53;5084309;28;20020;-91
2021/10/29 15:41:45;;;;;;;15.13;7.75;;;;;;;13.38;69.02;98102.63;5067690;28;20024;-91
2021/10/29 15:44:17;;;;;;;13.68;7.22;;;;;;;13.29;69.54;98102.13;5067547;28;20092;-91
2021/10/29 15:52:01;;;;;;;17.55;7.90;;;;;;;13.07;70.40;98095.94;5067396;28;20248;-91
2021/10/29 15:54:26;;;;;;;15.68;8.70;;;;;;;12.94;71.74;98095.47;5049589;28;20021;-91
2021/10/29 15:56:55;;;;;;;16.67;9.27;;;;;;;12.89;71.30;98100.09;5049688;28;20359;-91
2021/10/29 16:18:07;;;;;;;22.27;9.95;;;;;;;12.57;72.24;98077.47;5067056;28;20082;-91
2021/10/29 16:20:32;;;;;;;19.13;9.45;;;;;;;12.57;72.50;98087.19;5049173;28;20060;-90
2021/10/29 16:23:01;;;;;;;20.50;9.43;;;;;;;12.46;72.71;98087.56;5075106;28;20028;-90
2021/10/29 16:25:37;;;;;;;19.35;9.52;;;;;;;12.41;72.69;98078.94;5069717;28;20407;-90
2021/10/29 16:28:06;;;;;;;17.88;9.23;;;;;;;12.35;73.16;98079.19;5066515;28;20223;-92
2021/10/29 16:30:33;;;;;;;18.95;9.35;;;;;;;12.35;73.22;98079.19;5067529;28;20262;-91
2021/10/29 16:35:39;;;;;;;20.90;9.95;;;;;;;12.18;73.98;98076.25;5087955;28;20011;-90
2021/10/29 16:38:26;;;;;;;23.90;11.57;;;;;;;12.19;74.14;98072.72;5084951;28;20032;-92
2021/10/29 16:40:57;;;;;;;20.38;10.27;;;;;;;12.03;74.56;98066.25;5067865;28;20112;-91
2021/10/29 16:43:23;;;;;;;24.67;11.25;;;;;;;12.08;75.03;98064.31;5085723;28;20030;-89
2021/10/29 16:45:50;;;;;;;22.33;11.55;;;;;;;11.99;74.96;98067.25;5061573;28;20087;-91